Latest Coastal Weather Observations for Cape Wessel

IDD60701

Issued at 6:21 am CST Wednesday 28 January 2015 (issued every 10 minutes, with the page automatically refreshed every 10 minutes)

About coastal observations | Map of coastal stations | Coastal observations for NT | Marine services | Other Formats
Station Details ID: 200786 Name: CAPE WESSEL Lat: -11.00 Lon: 136.76 Height: 18.0 m
Data from the previous 72 hours. | See also: Recent months for locations in Northern Territory
Date/Time
CST
Temp

°C
Wind Pressure Rain
since 9am
mm
Weather Cloud Vis
km
Sea
Height
m
Swell
Dir
 
Speed
knots
Gust
knots
hPa Trend Height
m
Period
s
Dir
28/06:00am 25.7 WSW 15 21 1004.0 - 0.0 - - - - - - -
28/05:30am 25.4 SW 16 23 1004.1 - 0.0 - - - - - - -
28/05:00am 24.7 SSW 14 18 1004.3 - 0.0 - - - - - - -
28/04:33am 26.8 SW 20 25 1004.2 - 0.0 - - - - - - -
28/04:30am 28.5 W 20 24 1003.9 - 0.0 - - - - - - -
28/04:00am 28.3 W 19 23 1003.5 - 0.0 - - - - - - -
28/03:30am 28.3 WNW 16 20 1003.7 - 0.0 - - - - - - -
28/03:00am 28.3 WNW 16 19 1003.4 - 0.0 - - - - - - -
28/02:30am 28.3 WNW 16 19 1003.7 - 0.0 - - - - - - -
28/02:00am 28.4 WNW 17 22 1004.1 - 0.0 - - - - - - -
28/01:30am 28.4 WNW 18 22 1004.3 - 0.0 - - - - - - -
28/01:00am 28.5 WNW 18 23 1005.0 - 0.0 - - - - - - -
28/12:30am 28.4 WNW 18 24 1005.3 - 0.0 - - - - - - -
28/12:00am 28.4 WNW 18 23 1005.5 - 0.0 - - - - - - -
 
Date/Time
CST
Temp

°C
Wind Pressure Rain
since 9am
mm
Weather Cloud Vis
km
Sea
Height
m
Swell
Dir
 
Speed
knots
Gust
knots
hPa Trend Height
m
Period
s
Dir
27/11:30pm 28.5 WNW 18 23 1006.0 - 0.0 - - - - - - -
27/11:00pm 28.5 WNW 17 20 1006.3 - 0.0 - - - - - - -
27/10:30pm 28.4 WNW 15 19 1006.2 - 0.0 - - - - - - -
27/10:00pm 28.4 WNW 15 18 1005.9 - 0.0 - - - - - - -
27/09:30pm 28.6 WNW 16 20 1005.9 - 0.0 - - - - - - -
27/09:00pm 28.6 WNW 17 21 1005.5 - 0.0 - - - - - - -
27/08:30pm 28.5 WNW 16 19 1005.2 - 0.0 - - - - - - -
27/08:00pm 28.4 WNW 17 20 1004.9 - 0.0 - - - - - - -
27/07:30pm 28.5 WNW 18 21 1004.7 - 0.0 - - - - - - -
27/07:00pm 28.6 W 17 21 1004.4 - 0.0 - - - - - - -
27/06:30pm 28.8 W 17 21 1003.9 - 0.0 - - - - - - -
27/06:00pm 28.9 W 16 20 1003.7 - 0.0 - - - - - - -
27/05:30pm 29.1 W 19 22 1003.5 - 0.0 - - - - - - -
27/05:00pm 29.1 WNW 18 24 1003.1 - 0.0 - - - - - - -
27/04:30pm 29.1 W 20 24 1002.7 - 0.0 - - - - - - -
27/04:00pm 29.2 WNW 17 20 1002.6 - 0.0 - - - - - - -
27/03:30pm 29.5 W 14 17 1003.1 - 0.0 - - - - - - -
27/03:00pm 29.3 W 16 20 1003.5 - 0.0 - - - - - - -
27/02:30pm 28.7 W 17 23 1003.8 - 0.0 - - - - - - -
27/02:00pm 28.0 W 17 20 1004.4 - 0.0 - - - - - - -
27/01:30pm 27.5 W 16 19 1005.0 - 0.0 - - - - - - -
27/01:00pm 27.0 WSW 16 20 1005.8 - 0.0 - - - - - - -
27/12:30pm 27.0 WSW 17 23 1006.7 - 0.0 - - - - - - -
27/12:00pm 28.8 W 16 19 1006.7 - 0.0 - - - - - - -
27/11:30am 28.9 W 17 21 1007.3 - 0.0 - - - - - - -
27/11:00am 29.3 WNW 17 22 1007.4 - 0.0 - - - - - - -
27/10:30am 30.2 WNW 16 21 1007.4 - 0.0 - - - - - - -
27/10:00am 29.7 WNW 18 22 1007.6 - 0.0 - - - - - - -
27/09:30am 29.3 W 17 20 1007.7 - 0.0 - - - - - - -
27/09:00am 29.0 W 16 20 1007.6 - 4.4 - - - - - - -
27/08:30am 28.8 W 14 17 1007.5 - 4.4 - - - - - - -
27/08:00am 28.6 W 13 17 1007.5 - 4.4 - - - - - - -
27/07:30am 28.6 W 17 21 1007.5 - 4.4 - - - - - - -
27/07:00am 28.6 W 19 23 1007.4 - 4.4 - - - - - - -
27/06:30am 28.5 W 20 24 1006.7 - 4.4 - - - - - - -
27/06:00am 28.5 W 20 26 1006.1 - 4.4 - - - - - - -
27/05:30am 28.5 WNW 20 24 1006.1 - 4.4 - - - - - - -
27/05:00am 28.4 WNW 19 24 1006.0 - 4.4 - - - - - - -
27/04:30am 28.4 WNW 20 25 1005.6 - 4.4 - - - - - - -
27/04:00am 28.3 WNW 18 23 1005.7 - 4.4 - - - - - - -
27/03:30am 28.3 WNW 19 25 1005.2 - 4.4 - - - - - - -
27/03:00am 28.2 WNW 20 25 1005.0 - 4.4 - - - - - - -
27/02:30am 28.3 WNW 19 24 1005.5 - 4.4 - - - - - - -
27/02:00am 28.2 WNW 18 22 1006.1 - 4.4 - - - - - - -
27/01:30am 28.2 WNW 17 21 1006.7 - 4.4 - - - - - - -
27/01:00am 28.0 WNW 18 22 1007.0 - 4.4 - - - - - - -
27/12:30am 27.8 WNW 15 20 1007.5 - 4.4 - - - - - - -
27/12:00am 27.9 WNW 14 18 1007.6 - 4.4 - - - - - - -
 
Date/Time
CST
Temp

°C
Wind Pressure Rain
since 9am
mm
Weather Cloud Vis
km
Sea
Height
m
Swell
Dir
 
Speed
knots
Gust
knots
hPa Trend Height
m
Period
s
Dir
26/11:30pm 28.1 WNW 15 18 1008.2 - 4.4 - - - - - - -
26/11:00pm 28.4 WNW 16 20 1008.3 - 4.4 - - - - - - -
26/10:30pm 27.8 NNW 14 17 1008.2 - 4.4 - - - - - - -
26/10:00pm 27.8 NW 15 19 1007.9 - 4.4 - - - - - - -
26/09:30pm 28.0 NW 16 19 1007.4 - 4.4 - - - - - - -
26/09:00pm 27.9 WNW 16 21 1007.2 - 4.4 - - - - - - -
26/08:30pm 28.6 WNW 18 23 1007.4 - 4.4 - - - - - - -
26/08:00pm 28.7 WNW 18 22 1007.2 - 4.4 - - - - - - -
26/07:30pm 28.5 WNW 17 21 1007.2 - 4.4 - - - - - - -
26/07:00pm 28.5 WNW 17 21 1006.8 - 4.4 - - - - - - -
26/06:30pm 28.3 WNW 16 20 1006.5 - 4.4 - - - - - - -
26/06:00pm 29.0 WNW 20 25 1006.2 - 4.4 - - - - - - -
26/05:30pm 28.8 NW 17 22 1005.9 - 4.4 - - - - - - -
26/05:00pm 29.8 NW 18 22 1005.7 - 4.4 - - - - - - -
26/04:30pm 30.2 WNW 19 22 1005.6 - 4.4 - - - - - - -
26/04:00pm 29.5 NW 18 22 1005.8 - 4.4 - - - - - - -
26/03:30pm 28.8 NW 15 20 1005.8 - 4.4 - - - - - - -
26/03:00pm 27.7 N 15 23 1006.3 - 4.0 - - - - - - -
26/02:30pm 30.5 NW 14 19 1006.8 - 4.0 - - - - - - -
26/02:00pm 29.3 WNW 15 19 1006.8 - 4.0 - - - - - - -
26/01:31pm 27.5 WNW 18 28 1007.5 - 2.4 - - - - - - -
26/01:30pm 27.5 WNW 19 28 1007.5 - 1.8 - - - - - - -
26/01:29pm 28.0 WNW 18 28 1007.4 - 1.0 - - - - - - -
26/01:00pm 32.7 WNW 14 18 1007.8 - 0.0 - - - - - - -
26/12:30pm 33.3 WNW 14 18 1008.3 - 0.0 - - - - - - -
26/12:00pm 33.2 WNW 13 16 1008.4 - 0.0 - - - - - - -
26/11:30am 32.5 WNW 13 16 1008.6 - 0.0 - - - - - - -
26/11:00am 32.3 WNW 13 16 1009.1 - 0.0 - - - - - - -
26/10:30am 32.3 WNW 13 15 1009.5 - 0.0 - - - - - - -
26/10:00am 32.2 WNW 13 16 1009.6 - 0.0 - - - - - - -
26/09:30am 31.3 WNW 14 17 1009.7 - 0.0 - - - - - - -
26/09:00am 31.4 WNW 12 14 1009.4 - 0.2 - - - - - - -
26/08:30am 30.4 NW 14 16 1009.6 - 0.2 - - - - - - -
26/08:00am 29.3 WNW 14 17 1009.5 - 0.2 - - - - - - -
26/07:30am 28.9 WNW 14 18 1009.2 - 0.2 - - - - - - -
26/07:00am 28.3 NW 14 17 1008.8 - 0.2 - - - - - - -
26/06:30am 27.9 WNW 13 16 1008.7 - 0.2 - - - - - - -
26/06:00am 27.5 WNW 12 16 1008.2 - 0.2 - - - - - - -
26/05:30am 27.6 NW 14 20 1008.2 - 0.2 - - - - - - -
26/05:00am 28.1 WNW 14 16 1008.1 - 0.2 - - - - - - -
26/04:30am 28.2 W 15 18 1008.1 - 0.2 - - - - - - -
26/04:00am 28.1 WNW 15 19 1007.8 - 0.2 - - - - - - -
26/03:30am 28.2 WNW 15 19 1007.7 - 0.2 - - - - - - -
26/03:00am 28.1 WNW 17 20 1007.6 - 0.2 - - - - - - -
26/02:30am 28.2 WNW 16 21 1007.9 - 0.2 - - - - - - -
26/02:00am 28.2 WNW 17 23 1008.2 - 0.2 - - - - - - -
26/01:30am 28.2 WNW 18 22 1008.7 - 0.2 - - - - - - -
26/01:00am 28.1 WNW 17 21 1008.9 - 0.2 - - - - - - -
26/12:30am 28.3 WNW 18 23 1009.3 - 0.2 - - - - - - -
26/12:00am 28.3 WNW 18 23 1009.7 - 0.2 - - - - - - -
 
Date/Time
CST
Temp

°C
Wind Pressure Rain
since 9am
mm
Weather Cloud Vis
km
Sea
Height
m
Swell
Dir
 
Speed
knots
Gust
knots
hPa Trend Height
m
Period
s
Dir
25/11:30pm 28.4 WNW 17 21 1010.1 - 0.2 - - - - - - -
25/11:00pm 28.5 WNW 20 25 1010.1 - 0.2 - - - - - - -
25/10:30pm 28.5 WNW 19 24 1010.0 - 0.2 - - - - - - -
25/10:00pm 28.4 WNW 17 21 1009.3 - 0.2 - - - - - - -
25/09:30pm 28.4 WNW 18 21 1009.2 - 0.2 - - - - - - -
25/09:00pm 28.4 WNW 15 19 1008.8 - 0.2 - - - - - - -
25/08:30pm 28.4 WNW 16 21 1008.6 - 0.2 - - - - - - -
25/08:00pm 28.4 NW 16 19 1008.1 - 0.2 - - - - - - -
25/07:30pm 28.6 WNW 16 21 1007.8 - 0.2 - - - - - - -
25/07:00pm 28.6 WNW 17 20 1007.4 - 0.2 - - - - - - -
25/06:30pm 29.3 WNW 15 18 1007.0 - 0.2 - - - - - - -
25/06:00pm 30.2 WNW 15 19 1006.8 - 0.2 - - - - - - -
25/05:30pm 30.5 WNW 18 24 1007.0 - 0.2 - - - - - - -
25/05:00pm 29.2 NW 19 26 1007.3 - 0.2 - - - - - - -
25/04:30pm 31.1 WNW 18 21 1007.0 - 0.2 - - - - - - -
25/04:00pm 31.4 WNW 19 24 1007.0 - 0.2 - - - - - - -
25/03:30pm 31.3 WNW 16 22 1007.2 - 0.2 - - - - - - -
25/03:00pm 31.8 W 18 23 1007.3 - 0.2 - - - - - - -
25/02:30pm 31.5 W 21 25 1007.6 - 0.2 - - - - - - -
25/02:00pm 31.5 W 21 25 1007.9 - 0.2 - - - - - - -
25/01:30pm 31.5 WNW 20 24 1008.6 - 0.2 - - - - - - -
25/01:00pm 31.3 WNW 19 25 1009.1 - 0.2 - - - - - - -
25/12:41pm 31.1 WNW 19 31 1009.4 - 0.2 - - - - - - -
25/12:30pm 32.1 WNW 19 25 1009.4 - 0.2 - - - - - - -
25/12:00pm 31.9 WNW 18 23 1009.6 - 0.2 - - - - - - -
25/11:30am 30.6 WNW 19 28 1009.9 - 0.2 - - - - - - -
25/11:20am 30.3 WNW 19 31 1010.0 - 0.2 - - - - - - -
25/11:00am 31.4 WNW 18 22 1010.2 - 0.2 - - - - - - -
25/10:30am 31.5 WNW 17 21 1010.3 - 0.2 - - - - - - -
25/10:00am 30.7 WNW 18 22 1010.5 - 0.2 - - - - - - -
25/09:30am 30.3 WNW 18 22 1010.5 - 0.2 - - - - - - -
25/09:00am 30.0 WNW 17 21 1010.5 - 27.4 - - - - - - -
25/08:30am 29.7 WNW 16 21 1010.6 - 27.4 - - - - - - -
25/08:00am 28.9 WNW 19 24 1010.4 - 27.4 - - - - - - -
25/07:30am 28.3 WNW 20 24 1010.2 - 27.4 - - - - - - -
25/07:00am 28.1 NW 20 25 1009.7 - 27.4 - - - - - - -
25/06:30am 26.5 NW 16 21 1009.0 - 27.4 - - - - - - -

Other Formats:

Comma delimited format used in spreadsheet applications
http://www.bom.gov.au/fwo/IDD60701/IDD60701.94147.axf

JavaScript Object Notation format (JSON) in row-major order
http://www.bom.gov.au/fwo/IDD60701/IDD60701.94147.json